»·PEaware :: N525GM KBFL-KMHV

N525GM :: KBFL-KMHV

FLIGHT INFORMATION

Flight Status: Arrived
Operator: Privately registered:
United States
More flights under this callsign
Pilot: Timothy M. (16564)
Aircraft: CESSNA 172 SKYHAWK
(C172)
More flights by this aircraft type
Origin: KBFL Meadows
United States
Destination: KMHV Mojave
United States
More flights between these airports :: More routes between these airports
Route: KBFLDIRECT KMHV
File this flight plan on PilotEdge
Remarks: CAT6
Altitude:
(Current/Filed)
7,500ft
Speed:
(Current/Filed)
120kts
Departed: 28-Sep-17 07:35 PM
Arrived: 28-Sep-17 08:10 PM
Distance/Time
Traveled:
50nm/0:35
Distance/Time
To Go:
Arrived

Flight Plot

Page will automatically refresh every two minutes.

Flight plan parsing failed; only flown route is shown


Map Options




Map Legend


Flown Route
Filed Route
Departure Airport
Arrival Airport
Navaid (VOR, NDB)
Fix

Horizontal Profiles

Position Reports

Time Latitude Longitude Heading Altitude Ground
Speed
28-Sep-17 19:16 35.429372 -119.046108 226 497ft 0kts
28-Sep-17 19:17 35.429372 -119.046108 226 497ft 0kts
28-Sep-17 19:18 35.429372 -119.046108 226 497ft 0kts
28-Sep-17 19:19 35.429372 -119.046108 226 497ft 0kts
28-Sep-17 19:20 35.429372 -119.046108 226 497ft 0kts
28-Sep-17 19:21 35.429372 -119.046108 226 497ft 0kts
28-Sep-17 19:22 35.429372 -119.046108 226 497ft 0kts
28-Sep-17 19:23 35.429372 -119.046108 226 497ft 0kts
28-Sep-17 19:24 35.429372 -119.046108 226 497ft 0kts
28-Sep-17 19:25 35.429372 -119.046108 226 497ft 0kts
28-Sep-17 19:26 35.429372 -119.046108 226 497ft 0kts
28-Sep-17 19:27 35.429372 -119.046108 226 497ft 0kts
28-Sep-17 19:28 35.429372 -119.046108 226 497ft 0kts
28-Sep-17 19:29 35.429372 -119.046108 226 497ft 0kts
28-Sep-17 19:30 35.429372 -119.046108 226 497ft 0kts
28-Sep-17 19:31 35.429372 -119.046108 226 497ft 0kts
28-Sep-17 19:32 35.429372 -119.046108 226 497ft 0kts
28-Sep-17 19:33 35.429275 -119.046238 228 497ft 4kts
28-Sep-17 19:34 35.427589 -119.046402 136 497ft 11kts
28-Sep-17 19:35 35.425693 -119.044812 225 497ft 1kts
28-Sep-17 19:36 35.425692 -119.044813 225 497ft 0kts
28-Sep-17 19:37 35.425692 -119.044813 225 497ft 0kts
28-Sep-17 19:38 35.425693 -119.046363 314 497ft 7kts
28-Sep-17 19:39 35.437891 -119.061384 315 904ft 84kts
28-Sep-17 19:40 35.454177 -119.075827 46 1595ft 84kts
28-Sep-17 19:41 35.455136 -119.051368 137 2173ft 102kts
28-Sep-17 19:42 35.431651 -119.038892 150 2790ft 104kts
28-Sep-17 19:43 35.411128 -119.017125 129 3314ft 104kts
28-Sep-17 19:44 35.399320 -118.988119 102 3876ft 99kts
28-Sep-17 19:45 35.390604 -118.958052 109 4475ft 92kts
28-Sep-17 19:46 35.380850 -118.931046 112 5044ft 88kts
28-Sep-17 19:47 35.370779 -118.905196 113 5593ft 84kts
28-Sep-17 19:48 35.361284 -118.881519 114 6111ft 80kts
28-Sep-17 19:49 35.351215 -118.856653 114 6605ft 86kts
28-Sep-17 19:50 35.340739 -118.830986 115 7108ft 88kts
28-Sep-17 19:51 35.329872 -118.804475 116 7495ft 101kts
28-Sep-17 19:52 35.316029 -118.770862 116 7504ft 120kts
28-Sep-17 19:53 35.301150 -118.734816 116 7523ft 123kts
28-Sep-17 19:54 35.286078 -118.698275 116 7506ft 124kts
28-Sep-17 19:55 35.271254 -118.661999 116 7535ft 123kts
28-Sep-17 19:56 35.256337 -118.625667 117 7566ft 123kts
28-Sep-17 19:57 35.241453 -118.589644 117 7596ft 122kts
28-Sep-17 19:58 35.226492 -118.553485 117 7625ft 122kts
28-Sep-17 19:59 35.211482 -118.517271 117 7626ft 124kts
28-Sep-17 20:00 35.196398 -118.480897 117 7626ft 124kts
28-Sep-17 20:01 35.181245 -118.444390 117 7626ft 124kts
28-Sep-17 20:02 35.166106 -118.407966 117 7626ft 124kts
28-Sep-17 20:03 35.147469 -118.371530 130 6811ft 138kts
28-Sep-17 20:04 35.125024 -118.337784 128 5845ft 120kts
28-Sep-17 20:05 35.109159 -118.308332 121 5560ft 103kts
28-Sep-17 20:06 35.099124 -118.272435 100 5152ft 125kts
28-Sep-17 20:07 35.090899 -118.231637 113 4670ft 126kts
28-Sep-17 20:08 35.074772 -118.192925 130 3913ft 122kts
28-Sep-17 20:09 35.052217 -118.168380 141 3807ft 112kts
28-Sep-17 20:10 35.032553 -118.139627 133 3688ft 119kts
28-Sep-17 20:11 35.019625 -118.109378 38 3828ft 84kts
28-Sep-17 20:12 35.036298 -118.120660 306 3091ft 59kts
28-Sep-17 20:13 35.048647 -118.135605 311 2783ft 62kts
28-Sep-17 20:14 35.055014 -118.143439 319 2760ft 24kts
28-Sep-17 20:15 35.057579 -118.147152 271 2760ft 6kts
28-Sep-17 20:16 35.057142 -118.151381 181 2760ft 0kts
28-Sep-17 20:17 35.057142 -118.151381 181 2760ft 0kts
28-Sep-17 20:18 35.057142 -118.151381 181 2760ft 0kts
28-Sep-17 20:19 35.057142 -118.151381 181 2760ft 0kts
28-Sep-17 20:20 35.057142 -118.151381 181 2760ft 0kts
28-Sep-17 20:21 35.057142 -118.151381 181 2760ft 0kts
28-Sep-17 20:22 35.057142 -118.151381 181 2760ft 0kts
28-Sep-17 20:23 35.057142 -118.151381 181 2760ft 0kts
28-Sep-17 20:24 35.057142 -118.151381 181 2760ft 0kts
28-Sep-17 20:25 35.057142 -118.151381 181 2760ft 0kts
28-Sep-17 20:26 35.057142 -118.151381 181 2760ft 0kts

Navigation Log

Ident Type
Flight plan parsing failed, navigation log unavailable